Time;durP1;ratioP1;P1;durP2;ratioP2;P2;SDS_P1;SDS_P2;PMS_P1;PMS_P2;Temp;Humidity;BMP_temperature;BMP_pressure;BME280_temperature;BME280_humidity;BME280_pressure;Samples;Min_cycle;Max_cycle;Signal;HPM_P1;HPM_P2
2021/09/11 00:01:48;;;;;;;10.10;8.50;;;;;;;16.48;100.00;100647.59;5021987;28;20224;-74
2021/09/11 00:04:15;;;;;;;13.03;9.03;;;;;;;16.46;100.00;100647.66;5023364;28;20255;-74
2021/09/11 00:06:41;;;;;;;11.03;8.87;;;;;;;16.45;100.00;100640.69;5019988;28;20226;-74
2021/09/11 00:09:08;;;;;;;10.40;8.83;;;;;;;16.43;100.00;100644.34;5022706;28;20217;-74
2021/09/11 00:11:35;;;;;;;12.13;8.40;;;;;;;16.39;100.00;100640.13;5022884;28;20792;-74
2021/09/11 00:14:01;;;;;;;11.90;9.40;;;;;;;16.37;100.00;100636.72;5021140;28;20608;-74
2021/09/11 00:16:29;;;;;;;10.97;9.37;;;;;;;16.36;100.00;100640.28;5021335;28;20216;-74
2021/09/11 00:18:55;;;;;;;12.60;9.60;;;;;;;16.33;100.00;100643.09;5025479;28;20214;-74
2021/09/11 00:21:22;;;;;;;11.93;10.00;;;;;;;16.31;100.00;100647.56;5020903;28;20212;-74
2021/09/11 00:23:48;;;;;;;12.10;9.83;;;;;;;16.26;100.00;100638.13;5027564;28;20227;-74
2021/09/11 00:26:15;;;;;;;13.40;9.90;;;;;;;16.25;100.00;100640.81;5021653;28;20210;-74
2021/09/11 00:28:41;;;;;;;11.73;9.83;;;;;;;16.22;100.00;100644.47;5022137;28;20725;-76
2021/09/11 00:31:08;;;;;;;12.27;10.30;;;;;;;16.19;100.00;100638.50;5019062;28;20207;-76
2021/09/11 00:33:36;;;;;;;12.50;9.93;;;;;;;16.18;100.00;100631.53;5020770;28;20227;-76
2021/09/11 00:36:03;;;;;;;15.57;11.53;;;;;;;16.15;100.00;100631.72;5026607;28;20249;-76
2021/09/11 00:38:30;;;;;;;12.40;10.17;;;;;;;16.13;100.00;100636.16;5019368;28;20708;-76
2021/09/11 00:40:56;;;;;;;11.37;9.63;;;;;;;16.10;100.00;100631.91;5022042;28;20215;-76
2021/09/11 00:43:24;;;;;;;10.57;9.47;;;;;;;16.07;100.00;100634.69;5018938;28;20315;-74
2021/09/11 00:45:50;;;;;;;12.50;10.23;;;;;;;16.06;100.00;100633.00;5028141;28;20200;-74
2021/09/11 00:48:17;;;;;;;15.03;11.70;;;;;;;16.06;100.00;100627.75;5020158;28;20215;-74
2021/09/11 00:50:45;;;;;;;15.53;11.23;;;;;;;16.04;100.00;100629.56;5024073;28;20208;-74
2021/09/11 00:53:14;;;;;;;16.33;11.67;;;;;;;16.01;100.00;100633.22;5018833;28;20226;-74
2021/09/11 00:55:43;;;;;;;16.73;11.73;;;;;;;15.99;100.00;100636.84;5021965;28;20233;-74
2021/09/11 00:58:09;;;;;;;12.67;10.50;;;;;;;15.97;100.00;100633.44;5017218;28;20270;-74
2021/09/11 01:00:36;;;;;;;19.63;12.10;;;;;;;15.96;100.00;100632.59;5024294;28;20208;-74
2021/09/11 01:03:02;;;;;;;14.77;11.50;;;;;;;15.95;100.00;100630.88;5020026;28;20722;-74
2021/09/11 01:05:28;;;;;;;16.03;11.93;;;;;;;15.92;100.00;100635.44;5020260;28;20577;-74
2021/09/11 01:07:56;;;;;;;14.27;11.53;;;;;;;15.89;100.00;100628.56;5020631;28;20211;-74
2021/09/11 01:10:23;;;;;;;16.70;11.77;;;;;;;15.88;100.00;100629.47;5024897;28;20219;-74
2021/09/11 01:12:50;;;;;;;14.50;11.83;;;;;;;15.87;100.00;100627.78;5022055;28;20737;-74
2021/09/11 01:15:17;;;;;;;14.97;12.03;;;;;;;15.86;100.00;100626.06;5019638;28;20727;-74
2021/09/11 01:17:46;;;;;;;17.50;12.43;;;;;;;15.84;100.00;100625.28;5031545;28;20207;-74
2021/09/11 01:20:13;;;;;;;17.37;11.80;;;;;;;15.81;100.00;100628.94;5019154;28;20215;-76
2021/09/11 01:22:40;;;;;;;15.03;11.67;;;;;;;15.81;100.00;100633.31;5022063;28;20237;-76
2021/09/11 01:25:10;;;;;;;15.87;12.07;;;;;;;15.77;100.00;100627.34;5017014;28;20210;-76
2021/09/11 01:27:37;;;;;;;16.13;14.10;;;;;;;15.76;100.00;100630.06;5020589;28;20204;-76
2021/09/11 01:30:05;;;;;;;16.60;12.97;;;;;;;15.73;100.00;100638.06;5020459;28;20295;-75
2021/09/11 01:32:33;;;;;;;18.37;12.40;;;;;;;15.69;100.00;100634.75;5019810;28;20289;-75
2021/09/11 01:34:59;;;;;;;15.97;12.30;;;;;;;15.67;100.00;100636.56;5020496;28;20203;-76
2021/09/11 01:37:26;;;;;;;14.87;11.20;;;;;;;15.67;100.00;100639.19;5022090;28;20220;-75
2021/09/11 01:39:53;;;;;;;23.03;12.50;;;;;;;15.62;100.00;100649.94;5015171;28;20868;-76
2021/09/11 01:42:22;;;;;;;15.20;12.20;;;;;;;15.60;100.00;100641.28;5019269;28;20224;-76
2021/09/11 01:44:51;;;;;;;18.33;13.20;;;;;;;15.57;100.00;100644.03;5016571;28;20205;-75
2021/09/11 01:47:17;;;;;;;15.77;11.70;;;;;;;15.53;100.00;100645.09;5015558;28;20701;-76
2021/09/11 01:49:44;;;;;;;16.93;12.70;;;;;;;15.54;100.00;100638.94;5022477;28;20211;-76
2021/09/11 01:52:11;;;;;;;16.97;12.33;;;;;;;15.51;100.00;100642.56;5016109;28;20228;-76
2021/09/11 01:54:39;;;;;;;16.43;12.73;;;;;;;15.53;100.00;100645.97;5018205;28;20208;-76
2021/09/11 01:57:07;;;;;;;14.10;12.27;;;;;;;15.50;100.00;100650.50;5020079;28;20231;-76
2021/09/11 01:59:34;;;;;;;18.87;12.40;;;;;;;15.46;100.00;100644.53;5025692;28;20212;-76
2021/09/11 02:02:01;;;;;;;16.30;12.57;;;;;;;15.44;100.00;100642.91;5024148;28;20226;-76
2021/09/11 02:04:27;;;;;;;17.13;12.53;;;;;;;15.43;100.00;100647.31;5026048;28;20572;-76
2021/09/11 02:06:54;;;;;;;17.53;12.27;;;;;;;15.40;100.00;100647.44;5022304;28;20206;-75
2021/09/11 02:09:20;;;;;;;17.03;13.60;;;;;;;15.38;100.00;100643.19;5024645;28;20215;-76
2021/09/11 02:11:47;;;;;;;17.80;13.07;;;;;;;15.38;100.00;100646.66;5025709;28;20238;-75
2021/09/11 02:14:13;;;;;;;18.57;13.77;;;;;;;15.36;100.00;100647.66;5023715;28;20200;-76
2021/09/11 02:16:41;;;;;;;16.83;12.90;;;;;;;15.34;100.00;100651.22;5019167;28;20218;-75
2021/09/11 02:19:08;;;;;;;17.20;13.27;;;;;;;15.33;100.00;100651.28;5022692;28;20531;-75
2021/09/11 02:21:34;;;;;;;20.93;13.47;;;;;;;15.29;100.00;100647.09;5029058;28;20219;-75
2021/09/11 02:24:00;;;;;;;17.17;13.53;;;;;;;15.26;100.00;100645.44;5020667;28;20903;-75
2021/09/11 02:26:27;;;;;;;17.43;13.40;;;;;;;15.26;100.00;100650.69;5009491;28;20203;-75
2021/09/11 02:28:53;;;;;;;23.13;13.80;;;;;;;15.22;100.00;100648.28;5020679;28;20697;-75
2021/09/11 02:31:20;;;;;;;18.73;13.63;;;;;;;15.23;100.00;100645.59;5024444;28;20212;-75
2021/09/11 02:33:48;;;;;;;19.17;13.13;;;;;;;15.21;100.00;100651.81;5022029;28;20234;-75
2021/09/11 02:36:15;;;;;;;15.77;13.00;;;;;;;15.17;100.00;100651.13;5023603;28;20220;-75
2021/09/11 02:38:41;;;;;;;16.97;12.83;;;;;;;15.13;100.00;100658.28;5024824;28;20214;-75
2021/09/11 02:41:08;;;;;;;18.30;13.10;;;;;;;15.09;100.00;100659.34;5020532;28;20207;-75
2021/09/11 02:43:34;;;;;;;15.67;12.73;;;;;;;15.06;100.00;100664.72;5026112;28;20717;-75
2021/09/11 02:46:01;;;;;;;14.73;12.37;;;;;;;15.05;100.00;100670.03;5024552;28;20215;-75
2021/09/11 02:48:27;;;;;;;17.97;12.97;;;;;;;15.03;100.00;100656.13;5023577;28;20207;-75
2021/09/11 02:50:55;;;;;;;17.00;12.17;;;;;;;15.00;100.00;100664.97;5022608;28;20213;-75
2021/09/11 02:53:21;;;;;;;14.73;12.13;;;;;;;14.98;100.00;100672.06;5023550;28;20733;-75
2021/09/11 02:55:47;;;;;;;17.27;13.17;;;;;;;14.97;100.00;100673.00;5021218;28;20210;-75
2021/09/11 02:58:14;;;;;;;18.07;13.27;;;;;;;14.97;100.00;100657.25;5023281;28;20603;-75
2021/09/11 03:00:40;;;;;;;16.90;12.77;;;;;;;14.98;100.00;100660.72;5019417;28;20211;-75
2021/09/11 03:03:07;;;;;;;19.00;13.53;;;;;;;14.95;100.00;100662.56;5017213;28;20834;-75
2021/09/11 03:05:33;;;;;;;16.50;12.60;;;;;;;14.93;100.00;100666.16;5016409;28;20612;-75
2021/09/11 03:08:01;;;;;;;19.23;13.40;;;;;;;14.91;100.00;100668.00;5021223;28;20205;-75
2021/09/11 03:10:27;;;;;;;20.10;14.47;;;;;;;14.91;100.00;100665.38;5019418;28;20289;-75
2021/09/11 03:12:53;;;;;;;18.40;15.60;;;;;;;14.92;100.00;100673.19;5015043;28;20237;-75
2021/09/11 03:15:20;;;;;;;17.47;14.57;;;;;;;14.90;100.00;100675.06;5024399;28;20210;-75
2021/09/11 03:17:46;;;;;;;18.13;14.00;;;;;;;14.89;100.00;100675.94;5023187;28;20333;-75
2021/09/11 03:20:13;;;;;;;17.93;13.20;;;;;;;14.90;100.00;100668.94;5028490;28;20230;-75
2021/09/11 03:22:39;;;;;;;17.93;14.20;;;;;;;14.88;100.00;100670.75;5022789;28;20239;-75
2021/09/11 03:25:08;;;;;;;20.90;14.93;;;;;;;14.87;100.00;100675.16;5027347;28;20206;-75
2021/09/11 03:27:34;;;;;;;18.63;15.00;;;;;;;14.85;100.00;100670.91;5018634;28;20306;-76
2021/09/11 03:30:01;;;;;;;17.13;13.63;;;;;;;14.84;100.00;100671.81;5023419;28;20212;-75
2021/09/11 03:32:27;;;;;;;18.87;13.10;;;;;;;14.81;100.00;100678.06;5019169;28;21530;-75
2021/09/11 03:34:53;;;;;;;17.17;14.17;;;;;;;14.78;100.00;100680.81;5024688;28;20232;-75
2021/09/11 03:37:20;;;;;;;18.87;13.70;;;;;;;14.78;100.00;100678.19;5020628;28;20213;-75
2021/09/11 03:39:46;;;;;;;18.20;13.73;;;;;;;14.79;100.00;100668.53;5022785;28;20213;-75
2021/09/11 03:42:14;;;;;;;19.97;14.43;;;;;;;14.78;100.00;100675.56;5021050;28;20226;-75
2021/09/11 03:44:40;;;;;;;22.10;15.80;;;;;;;14.78;100.00;100675.56;5022059;28;20627;-75
2021/09/11 03:47:07;;;;;;;20.10;14.23;;;;;;;14.77;100.00;100674.72;5021534;28;20198;-75
2021/09/11 03:49:33;;;;;;;20.70;15.33;;;;;;;14.80;100.00;100678.97;5017987;28;20207;-75
2021/09/11 03:51:59;;;;;;;20.87;15.07;;;;;;;14.79;100.00;100674.63;5015322;28;20244;-75
2021/09/11 03:54:26;;;;;;;18.97;14.40;;;;;;;14.77;100.00;100666.84;5022265;28;20213;-75
2021/09/11 03:56:52;;;;;;;22.97;15.57;;;;;;;14.77;100.00;100672.09;5023896;28;20219;-75
2021/09/11 03:59:20;;;;;;;19.00;14.27;;;;;;;14.76;100.00;100677.41;5020910;28;20213;-75
2021/09/11 04:01:46;;;;;;;19.93;15.03;;;;;;;14.73;100.00;100683.63;5015218;28;20230;-75
2021/09/11 04:04:12;;;;;;;18.63;13.90;;;;;;;14.70;100.00;100681.13;5019293;28;20203;-75
2021/09/11 04:06:39;;;;;;;18.27;14.13;;;;;;;14.74;100.00;100684.50;5025030;28;20196;-75
2021/09/11 04:09:05;;;;;;;17.33;14.10;;;;;;;14.75;100.00;100687.03;5019794;28;20593;-75
2021/09/11 04:11:32;;;;;;;19.20;14.60;;;;;;;14.73;100.00;100691.50;5026237;28;20299;-75
2021/09/11 04:13:58;;;;;;;19.20;14.97;;;;;;;14.72;100.00;100689.81;5016587;28;20208;-75
2021/09/11 04:16:26;;;;;;;20.00;14.83;;;;;;;14.71;100.00;100690.72;5021703;28;20213;-75
2021/09/11 04:18:52;;;;;;;21.17;15.53;;;;;;;14.70;100.00;100694.25;5020411;28;20211;-75
2021/09/11 04:21:18;;;;;;;23.23;15.87;;;;;;;14.72;100.00;100699.44;5023031;28;20297;-75
2021/09/11 04:23:45;;;;;;;19.30;15.50;;;;;;;14.73;100.00;100699.38;5021871;28;20222;-75
2021/09/11 04:26:11;;;;;;;21.73;15.37;;;;;;;14.73;100.00;100695.91;5017395;28;20201;-75
2021/09/11 04:28:38;;;;;;;19.27;15.20;;;;;;;14.71;100.00;100695.97;5023970;28;20216;-75
2021/09/11 04:31:04;;;;;;;23.43;14.97;;;;;;;14.69;100.00;100696.97;5019088;28;20252;-75
2021/09/11 04:33:32;;;;;;;19.27;14.63;;;;;;;14.69;100.00;100694.34;5023731;28;20778;-75
2021/09/11 04:35:58;;;;;;;18.30;13.60;;;;;;;14.71;100.00;100689.88;5018830;28;20199;-75
2021/09/11 04:38:25;;;;;;;18.93;14.50;;;;;;;14.70;100.00;100696.88;5022262;28;20244;-75
2021/09/11 04:40:51;;;;;;;19.83;13.97;;;;;;;14.69;100.00;100696.97;5019686;28;20207;-75
2021/09/11 04:43:18;;;;;;;21.00;14.80;;;;;;;14.69;100.00;100705.69;5023204;28;20320;-75
2021/09/11 04:45:44;;;;;;;19.87;14.40;;;;;;;14.69;100.00;100705.69;5020276;28;20197;-75
2021/09/11 04:48:11;;;;;;;20.70;14.57;;;;;;;14.72;100.00;100705.56;5021226;28;20451;-75
2021/09/11 04:50:39;;;;;;;23.83;16.03;;;;;;;14.74;100.00;100711.59;5019230;28;20200;-75
2021/09/11 04:53:05;;;;;;;21.33;15.53;;;;;;;14.77;100.00;100714.09;5020505;28;20838;-75
2021/09/11 04:55:31;;;;;;;20.30;14.93;;;;;;;14.81;100.00;100716.56;5020625;28;20928;-75
2021/09/11 04:57:58;;;;;;;21.57;16.40;;;;;;;14.82;100.00;100711.25;5018863;28;20308;-75
2021/09/11 05:00:24;;;;;;;23.47;16.43;;;;;;;14.85;100.00;100715.53;5020549;28;20211;-75
2021/09/11 05:02:50;;;;;;;22.33;16.50;;;;;;;14.90;100.00;100721.47;5019344;28;20236;-75
2021/09/11 05:05:17;;;;;;;23.90;16.30;;;;;;;14.93;100.00;100719.56;5022340;28;20209;-75
2021/09/11 05:07:44;;;;;;;22.80;16.87;;;;;;;14.97;100.00;100722.91;5020127;28;20198;-75
2021/09/11 05:10:12;;;;;;;24.03;17.07;;;;;;;15.02;100.00;100720.94;5027304;28;20206;-75
2021/09/11 05:12:38;;;;;;;25.70;16.60;;;;;;;15.06;100.00;100724.28;5017540;28;20232;-75
2021/09/11 05:15:05;;;;;;;25.67;17.07;;;;;;;15.09;100.00;100724.13;5023139;28;20209;-75
2021/09/11 05:17:32;;;;;;;23.73;16.73;;;;;;;15.11;100.00;100724.94;5019545;28;20634;-75
2021/09/11 05:19:58;;;;;;;22.90;16.50;;;;;;;15.13;100.00;100731.81;5023312;28;20784;-75
2021/09/11 05:22:24;;;;;;;24.67;15.90;;;;;;;15.14;100.00;100732.66;5016863;28;20226;-75
2021/09/11 05:24:52;;;;;;;21.40;15.53;;;;;;;15.15;100.00;100737.00;5022061;28;20216;-75
2021/09/11 05:27:19;;;;;;;19.87;15.10;;;;;;;15.17;100.00;100734.31;5022126;28;20216;-75
2021/09/11 05:29:45;;;;;;;18.97;14.70;;;;;;;15.17;100.00;100737.78;5023901;28;20755;-75
2021/09/11 05:32:11;;;;;;;20.63;15.60;;;;;;;15.18;100.00;100744.75;5019701;28;20237;-75
2021/09/11 05:34:38;;;;;;;19.50;15.33;;;;;;;15.20;100.00;100747.31;5026065;28;20289;-75
2021/09/11 05:37:04;;;;;;;20.50;15.27;;;;;;;15.20;100.00;100752.56;5023203;28;20220;-75
2021/09/11 05:39:31;;;;;;;20.90;14.40;;;;;;;15.20;100.00;100745.53;5026744;28;20202;-75
2021/09/11 05:41:58;;;;;;;20.03;14.67;;;;;;;15.20;100.00;100742.91;5026770;28;20231;-75
2021/09/11 05:44:25;;;;;;;19.30;15.40;;;;;;;15.22;100.00;100741.06;5022173;28;20200;-75
2021/09/11 05:46:51;;;;;;;22.17;15.40;;;;;;;15.24;100.00;100749.72;5025548;28;20213;-75
2021/09/11 05:49:18;;;;;;;19.47;15.40;;;;;;;15.25;100.00;100746.19;5022584;28;20197;-75
2021/09/11 05:51:44;;;;;;;19.10;15.20;;;;;;;15.28;100.00;100742.56;5031500;28;20207;-75
2021/09/11 05:54:10;;;;;;;20.13;15.00;;;;;;;15.31;100.00;100750.31;5021348;28;20210;-75
2021/09/11 05:56:37;;;;;;;19.30;15.23;;;;;;;15.32;100.00;100750.25;5028521;28;20223;-75
2021/09/11 05:59:04;;;;;;;19.23;14.77;;;;;;;15.34;100.00;100747.56;5022679;28;20226;-75
2021/09/11 06:01:31;;;;;;;19.97;15.03;;;;;;;15.38;100.00;100750.91;5023123;28;20288;-75
2021/09/11 06:03:57;;;;;;;20.00;15.30;;;;;;;15.40;100.00;100744.66;5021334;28;20697;-75
2021/09/11 06:06:23;;;;;;;19.83;15.43;;;;;;;15.45;100.00;100749.69;5025488;28;20238;-75
2021/09/11 06:08:50;;;;;;;18.77;14.73;;;;;;;15.49;100.00;100751.25;5023426;28;20202;-75
2021/09/11 06:11:16;;;;;;;17.33;14.37;;;;;;;15.52;100.00;100761.66;5028142;28;20325;-75
2021/09/11 06:13:42;;;;;;;18.27;14.80;;;;;;;15.55;100.00;100765.91;5033822;28;20737;-75
2021/09/11 06:16:10;;;;;;;18.77;14.40;;;;;;;15.56;100.00;100757.09;5023398;28;20218;-75
2021/09/11 06:18:37;;;;;;;16.57;13.83;;;;;;;15.57;100.00;100757.03;5035233;28;20637;-75
2021/09/11 06:21:03;;;;;;;19.50;14.43;;;;;;;15.59;100.00;100755.19;5024705;28;20207;-74
2021/09/11 06:23:29;;;;;;;19.27;14.63;;;;;;;15.60;100.00;100767.41;5033401;28;20222;-74
2021/09/11 06:25:56;;;;;;;20.83;14.53;;;;;;;15.62;100.00;100762.94;5021046;28;20854;-74
2021/09/11 06:28:24;;;;;;;18.03;13.87;;;;;;;15.64;100.00;100771.59;5035569;28;20199;-74
2021/09/11 06:30:50;;;;;;;18.17;14.53;;;;;;;15.67;100.00;100774.09;5030342;28;20269;-74
2021/09/11 06:33:18;;;;;;;19.87;15.10;;;;;;;15.72;100.00;100773.88;5029798;28;20231;-74
2021/09/11 06:35:44;;;;;;;17.10;14.27;;;;;;;15.79;100.00;100772.72;5026770;28;20764;-74
2021/09/11 06:38:11;;;;;;;19.63;14.03;;;;;;;15.84;100.00;100767.25;5032006;28;20227;-74
2021/09/11 06:40:37;;;;;;;18.80;14.90;;;;;;;15.93;100.00;100772.06;5016351;28;20672;-74
2021/09/11 06:43:04;;;;;;;19.37;14.77;;;;;;;16.01;100.00;100769.97;5018774;28;20233;-74
2021/09/11 06:45:31;;;;;;;17.23;14.07;;;;;;;16.11;100.00;100767.72;5029530;28;20207;-76
2021/09/11 06:47:57;;;;;;;19.77;15.10;;;;;;;16.23;100.00;100767.16;5024539;28;20200;-76
2021/09/11 06:50:25;;;;;;;19.97;15.33;;;;;;;16.36;100.00;100767.44;5033322;28;20693;-74
2021/09/11 06:52:52;;;;;;;18.67;14.57;;;;;;;16.54;100.00;100778.00;5024186;28;20702;-74
2021/09/11 06:55:19;;;;;;;20.13;15.73;;;;;;;16.69;100.00;100779.03;5034813;28;20226;-74
2021/09/11 06:57:45;;;;;;;17.60;13.73;;;;;;;16.75;100.00;100790.13;5018110;28;20213;-74
2021/09/11 07:00:12;;;;;;;17.10;14.00;;;;;;;16.84;100.00;100788.84;5032852;28;20208;-76
2021/09/11 07:02:39;;;;;;;13.93;11.90;;;;;;;16.84;100.00;100788.84;5022467;28;20317;-76
2021/09/11 07:05:06;;;;;;;15.70;11.37;;;;;;;16.87;100.00;100793.97;5027066;28;20204;-76
2021/09/11 07:07:34;;;;;;;16.67;11.80;;;;;;;16.90;100.00;100791.16;5023030;28;20196;-74
2021/09/11 07:10:00;;;;;;;14.27;11.73;;;;;;;16.95;100.00;100793.56;5027183;28;20564;-74
2021/09/11 07:12:26;;;;;;;13.87;11.80;;;;;;;17.05;100.00;100789.53;5020886;28;20238;-74
2021/09/11 07:14:53;;;;;;;14.23;11.90;;;;;;;17.18;100.00;100798.53;5025560;28;20867;-76
2021/09/11 07:17:19;;;;;;;14.83;11.73;;;;;;;17.31;100.00;100792.66;5018190;28;20204;-74
2021/09/11 07:19:46;;;;;;;15.03;12.07;;;;;;;17.42;100.00;100800.84;5023497;28;20223;-74
2021/09/11 07:22:12;;;;;;;15.20;11.93;;;;;;;17.46;100.00;100804.16;5026754;28;20230;-74
2021/09/11 07:24:40;;;;;;;14.57;11.73;;;;;;;17.53;100.00;100810.81;5018786;28;20232;-74
2021/09/11 07:27:06;;;;;;;15.40;11.63;;;;;;;17.55;100.00;100812.47;5021511;28;20223;-74
2021/09/11 07:29:32;;;;;;;13.23;11.13;;;;;;;17.62;100.00;100810.31;5022526;28;20753;-74
2021/09/11 07:32:01;;;;;;;12.27;10.80;;;;;;;17.72;100.00;100813.34;5023200;28;20815;-74
2021/09/11 07:34:27;;;;;;;14.17;10.70;;;;;;;17.79;100.00;100812.91;5022637;28;20692;-74
2021/09/11 07:36:54;;;;;;;12.47;10.37;;;;;;;17.92;100.00;100815.81;5020556;28;20212;-74
2021/09/11 07:39:20;;;;;;;12.60;10.40;;;;;;;18.03;100.00;100823.13;5022517;28;20227;-74
2021/09/11 07:41:48;;;;;;;14.47;11.10;;;;;;;18.14;100.00;100825.19;5023118;28;20235;-74
2021/09/11 07:44:14;;;;;;;14.47;11.67;;;;;;;18.25;100.00;100819.31;5021893;28;21482;-74
2021/09/11 07:46:40;;;;;;;13.07;10.23;;;;;;;18.35;100.00;100826.63;5025602;28;20237;-74
2021/09/11 07:49:07;;;;;;;12.17;10.37;;;;;;;18.50;100.00;100834.63;5022026;28;20203;-76
2021/09/11 07:51:33;;;;;;;11.77;10.57;;;;;;;18.51;100.00;100829.25;5026370;28;20370;-76
2021/09/11 07:54:00;;;;;;;11.43;9.80;;;;;;;18.60;100.00;100833.19;5007816;28;20207;-76
2021/09/11 07:56:27;;;;;;;12.10;10.43;;;;;;;18.63;100.00;100837.47;5022939;28;20319;-74
2021/09/11 07:58:55;;;;;;;12.50;10.00;;;;;;;18.65;100.00;100839.06;5022444;28;20215;-74
2021/09/11 08:01:21;;;;;;;12.67;10.83;;;;;;;18.65;100.00;100854.06;5026217;28;20207;-74
2021/09/11 08:03:47;;;;;;;11.83;9.90;;;;;;;18.66;100.00;100853.97;5023540;28;20227;-74
2021/09/11 08:06:14;;;;;;;11.63;10.20;;;;;;;18.63;100.00;100850.66;5019055;28;20298;-74
2021/09/11 08:08:40;;;;;;;13.97;10.40;;;;;;;18.62;100.00;100857.72;5023338;28;20206;-74
2021/09/11 08:11:07;;;;;;;11.80;9.60;;;;;;;18.68;100.00;100851.22;5023304;28;20199;-74
2021/09/11 08:13:33;;;;;;;14.37;10.33;;;;;;;18.70;100.00;100847.56;5022041;28;20322;-74
2021/09/11 08:16:01;;;;;;;14.33;10.63;;;;;;;18.77;100.00;100853.38;5021850;28;20196;-74
2021/09/11 08:18:28;;;;;;;13.27;10.83;;;;;;;18.80;100.00;100849.69;5022205;28;20227;-74
2021/09/11 08:20:54;;;;;;;11.50;10.30;;;;;;;18.84;100.00;100851.25;5021774;28;20734;-74
2021/09/11 08:23:21;;;;;;;11.57;9.73;;;;;;;18.85;100.00;100850.31;5021532;28;20246;-74
2021/09/11 08:25:49;;;;;;;11.53;10.33;;;;;;;18.90;100.00;100851.75;5018992;28;20208;-74
2021/09/11 08:28:15;;;;;;;12.17;10.17;;;;;;;18.95;100.00;100848.00;5016047;28;20196;-74
2021/09/11 08:30:42;;;;;;;11.20;9.77;;;;;;;18.97;100.00;100857.53;5018403;28;20204;-74
2021/09/11 08:33:12;;;;;;;11.63;9.70;;;;;;;19.06;100.00;100856.16;5018276;28;20226;-74
2021/09/11 08:35:38;;;;;;;11.03;9.73;;;;;;;19.07;100.00;100864.00;5023672;28;20200;-76
2021/09/11 08:38:04;;;;;;;10.87;9.50;;;;;;;19.08;100.00;100855.13;5016159;28;20223;-76
2021/09/11 08:40:31;;;;;;;11.47;10.20;;;;;;;19.17;100.00;100851.09;5022905;28;20262;-76
2021/09/11 08:42:58;;;;;;;12.03;10.23;;;;;;;19.35;100.00;100854.44;5016691;28;20283;-76
2021/09/11 08:45:24;;;;;;;13.03;10.60;;;;;;;19.56;100.00;100840.88;5022330;28;20205;-76
2021/09/11 08:47:53;;;;;;;11.53;9.60;;;;;;;19.73;100.00;100850.44;5019035;28;20207;-76
2021/09/11 08:50:21;;;;;;;10.33;9.23;;;;;;;19.93;100.00;100851.88;5023530;28;20774;-76
2021/09/11 08:52:49;;;;;;;9.90;8.67;;;;;;;19.99;100.00;100857.63;5020990;28;20236;-76
2021/09/11 08:55:18;;;;;;;10.50;8.47;;;;;;;20.15;100.00;100857.53;5022143;28;20199;-76
2021/09/11 08:57:58;;;;;;;12.63;8.37;;;;;;;20.28;100.00;100854.13;5017272;28;20202;-76
2021/09/11 09:00:37;;;;;;;9.17;7.47;;;;;;;20.29;100.00;100850.53;5023331;28;20207;-76
2021/09/11 09:03:23;;;;;;;9.90;6.50;;;;;;;20.20;100.00;100857.25;5021114;28;20223;-76
2021/09/11 09:05:51;;;;;;;10.07;6.57;;;;;;;20.38;100.00;100860.53;5017958;28;20262;-76
2021/09/11 09:08:26;;;;;;;7.33;6.07;;;;;;;20.65;100.00;100862.38;5018452;28;20212;-76
2021/09/11 09:10:53;;;;;;;8.73;6.40;;;;;;;20.91;100.00;100856.22;5024348;28;20211;-76
2021/09/11 09:13:19;;;;;;;7.30;6.40;;;;;;;21.08;98.77;100856.94;5016202;28;20219;-76
2021/09/11 09:15:46;;;;;;;7.10;6.40;;;;;;;21.16;97.03;100858.13;5015787;28;20203;-76
2021/09/11 09:18:14;;;;;;;7.47;6.77;;;;;;;21.40;97.94;100857.41;5014956;28;20223;-76
2021/09/11 09:20:41;;;;;;;9.47;6.03;;;;;;;21.48;93.96;100860.41;5020225;28;20250;-76
2021/09/11 09:23:17;;;;;;;5.90;5.40;;;;;;;21.37;94.40;100854.94;5019441;28;20235;-76
2021/09/11 09:25:43;;;;;;;5.90;5.40;;;;;;;21.31;93.31;100864.19;5022275;28;20199;-76
2021/09/11 09:28:12;;;;;;;5.73;5.13;;;;;;;21.62;92.13;100858.59;5001649;28;20214;-76
2021/09/11 09:30:40;;;;;;;4.70;4.30;;;;;;;21.83;90.35;100859.78;5021838;28;20210;-76
2021/09/11 09:33:07;;;;;;;6.00;4.10;;;;;;;21.96;88.74;100861.59;5019406;28;20300;-76
2021/09/11 09:35:34;;;;;;;4.20;3.90;;;;;;;22.10;88.20;100857.00;5021406;28;20203;-76
2021/09/11 09:38:05;;;;;;;4.03;3.63;;;;;;;22.32;87.14;100860.78;5018154;28;20207;-76
2021/09/11 09:40:44;;;;;;;4.75;4.28;;;;;;;22.55;86.53;100858.28;5020656;28;20212;-76
2021/09/11 09:43:13;;;;;;;4.95;4.07;;;;;;;22.45;85.17;100858.97;5020338;28;20318;-76
2021/09/11 09:45:40;;;;;;;4.30;3.90;;;;;;;22.47;84.10;100854.38;5020585;28;20216;-76
2021/09/11 09:48:09;;;;;;;4.43;4.03;;;;;;;22.58;85.53;100852.75;5017803;28;20224;-76
2021/09/11 09:50:38;;;;;;;5.03;3.88;;;;;;;22.48;82.94;100857.91;5019269;28;20227;-76
2021/09/11 09:53:05;;;;;;;4.47;4.07;;;;;;;22.42;84.03;100856.50;5020318;28;20235;-76
2021/09/11 09:55:32;;;;;;;3.92;3.53;;;;;;;22.43;85.90;100858.22;5019731;28;20208;-76
2021/09/11 09:58:00;;;;;;;4.50;3.50;;;;;;;22.43;84.67;100868.00;5019921;28;20211;-76
2021/09/11 10:00:27;;;;;;;3.80;3.50;;;;;;;22.55;83.28;100856.50;5015999;28;20223;-77
2021/09/11 10:02:54;;;;;;;3.97;3.67;;;;;;;22.65;83.91;100864.63;5022060;28;20216;-74
2021/09/11 10:05:22;;;;;;;5.13;4.50;;;;;;;22.77;84.94;100861.06;5015645;28;20220;-74
2021/09/11 10:08:00;;;;;;;4.72;3.40;;;;;;;22.72;83.11;100857.91;5012764;28;20396;-74
2021/09/11 10:10:31;;;;;;;3.80;3.50;;;;;;;22.58;83.10;100860.72;5019873;28;20254;-74
2021/09/11 10:13:23;;;;;;;4.20;3.80;;;;;;;22.63;84.16;100859.41;5020570;28;20810;-74
2021/09/11 10:15:52;;;;;;;4.03;3.63;;;;;;;22.69;82.62;100860.81;5000815;28;20211;-76
2021/09/11 10:18:42;;;;;;;5.10;3.50;;;;;;;23.02;82.65;100859.25;5021881;28;20231;-76
2021/09/11 10:21:17;;;;;;;3.15;2.95;;;;;;;22.92;79.77;100863.53;5028588;28;20215;-74
2021/09/11 10:24:04;;;;;;;3.78;2.90;;;;;;;22.76;79.53;100859.38;5013982;28;20216;-74
2021/09/11 10:26:47;;;;;;;4.63;3.08;;;;;;;22.67;82.34;100850.28;5023919;28;20316;-74
2021/09/11 10:29:42;;;;;;;4.05;3.10;;;;;;;22.68;82.76;100856.44;5020494;28;20210;-74
2021/09/11 10:32:14;;;;;;;4.68;3.22;;;;;;;22.53;82.23;100854.91;5022436;28;20334;-74
2021/09/11 10:34:45;;;;;;;4.55;3.50;;;;;;;22.52;83.23;100855.88;5019339;28;20211;-74
2021/09/11 10:37:11;;;;;;;4.72;3.90;;;;;;;22.51;84.04;100855.00;5014338;28;20574;-74
2021/09/11 10:39:38;;;;;;;3.63;3.30;;;;;;;22.57;82.54;100853.72;5023677;28;20216;-74
2021/09/11 10:42:05;;;;;;;4.85;4.10;;;;;;;22.56;82.17;100850.19;5026127;28;20231;-74
2021/09/11 10:44:32;;;;;;;3.70;3.38;;;;;;;22.53;83.51;100846.94;5025299;28;20204;-74
2021/09/11 10:47:00;;;;;;;4.03;3.60;;;;;;;22.45;82.91;100848.34;5016323;28;20200;-76
2021/09/11 10:49:28;;;;;;;3.58;3.00;;;;;;;22.49;83.61;100846.31;5025081;28;20207;-76
2021/09/11 10:52:03;;;;;;;5.18;4.10;;;;;;;22.61;85.25;100842.75;5022780;28;20326;-76
2021/09/11 10:54:32;;;;;;;3.90;3.53;;;;;;;22.62;83.86;100851.56;5025713;28;20214;-76
2021/09/11 10:57:14;;;;;;;4.70;3.47;;;;;;;22.44;83.30;100841.34;5021894;28;20195;-76
2021/09/11 10:59:43;;;;;;;3.58;3.28;;;;;;;22.43;83.64;100844.94;5019950;28;20216;-76
2021/09/11 11:02:35;;;;;;;3.50;3.20;;;;;;;22.37;82.38;100847.19;5023331;28;20240;-74
2021/09/11 11:05:05;;;;;;;3.95;3.25;;;;;;;22.35;83.69;100834.00;5021965;28;20408;-76
2021/09/11 11:07:33;;;;;;;4.78;3.28;;;;;;;22.39;83.15;100842.63;5022706;28;20218;-74
2021/09/11 11:10:02;;;;;;;3.67;3.38;;;;;;;22.39;84.58;100835.50;5015282;28;20202;-74